createdAt,value
2018-02-11T00:00:18.783Z,93.10
2018-02-11T00:01:23.094Z,93.00
2018-02-11T00:02:27.404Z,92.90
2018-02-11T00:03:31.670Z,92.80
2018-02-11T00:04:35.874Z,92.80
2018-02-11T00:05:40.047Z,92.90
2018-02-11T00:06:44.248Z,92.50
2018-02-11T00:07:48.423Z,92.50
2018-02-11T00:08:53.485Z,92.70
2018-02-11T00:09:57.769Z,92.30
2018-02-11T00:11:02.772Z,92.20
2018-02-11T00:12:06.976Z,92.20
2018-02-11T00:13:11.186Z,92.10
2018-02-11T00:14:15.445Z,91.90
2018-02-11T00:15:19.639Z,91.60
2018-02-11T00:16:24.914Z,91.30
2018-02-11T00:17:29.126Z,91.30
2018-02-11T00:18:33.322Z,91.30
2018-02-11T00:19:37.576Z,91.30
2018-02-11T00:20:41.757Z,91.30
2018-02-11T00:21:45.932Z,91.20
2018-02-11T00:22:50.887Z,91.30
2018-02-11T00:23:55.062Z,91.30
2018-02-11T00:25:00.455Z,91.20
2018-02-11T00:26:04.654Z,91.10
2018-02-11T00:27:08.847Z,91.10
2018-02-11T00:28:13.053Z,91.10
2018-02-11T00:29:18.300Z,91.10
2018-02-11T00:30:22.522Z,91.10
2018-02-11T00:31:26.718Z,91.30
2018-02-11T00:32:30.906Z,91.40
2018-02-11T00:33:35.848Z,91.60
2018-02-11T00:34:40.039Z,91.60
2018-02-11T00:35:45.057Z,91.80
2018-02-11T00:36:54.046Z,91.90
2018-02-11T00:38:03.735Z,91.90
2018-02-11T00:39:07.930Z,92.20
2018-02-11T00:40:12.137Z,92.30
2018-02-11T00:41:16.329Z,92.30
2018-02-11T00:42:20.526Z,92.30
2018-02-11T00:43:24.755Z,92.50
2018-02-11T00:44:28.998Z,92.40
2018-02-11T00:45:33.961Z,92.60
2018-02-11T00:46:38.145Z,92.60
2018-02-11T00:47:43.118Z,92.60
2018-02-11T00:48:47.346Z,92.60
2018-02-11T00:49:51.648Z,92.60
2018-02-11T00:50:56.630Z,92.70
2018-02-11T00:52:00.843Z,92.70
2018-02-11T00:53:05.021Z,92.60
2018-02-11T00:54:09.214Z,92.60
2018-02-11T00:55:13.525Z,92.90
2018-02-11T00:56:18.266Z,92.80
2018-02-11T00:57:22.532Z,92.70
2018-02-11T00:58:26.726Z,92.70
2018-02-11T00:59:30.961Z,92.80
2018-02-11T01:00:35.209Z,92.90
2018-02-11T01:01:39.444Z,93.10
2018-02-11T01:02:44.680Z,93.20
2018-02-11T01:03:49.179Z,93.20
2018-02-11T01:04:54.282Z,93.40
2018-02-11T01:05:58.463Z,93.40
2018-02-11T01:07:02.684Z,93.50
2018-02-11T01:08:06.865Z,93.60
2018-02-11T01:09:11.056Z,93.80
2018-02-11T01:10:15.319Z,93.90
2018-02-11T01:11:19.924Z,94.10
2018-02-11T01:12:24.206Z,94.20
2018-02-11T01:13:29.175Z,94.60
2018-02-11T01:14:33.386Z,94.60
2018-02-11T01:15:37.565Z,94.80
2018-02-11T01:16:42.637Z,95.20
2018-02-11T01:17:47.393Z,95.20
2018-02-11T01:18:52.399Z,95.50
2018-02-11T01:19:56.602Z,95.50
2018-02-11T01:21:00.781Z,95.70
2018-02-11T01:22:04.961Z,95.90
2018-02-11T01:23:10.355Z,96.40
2018-02-11T01:24:14.569Z,96.40
2018-02-11T01:25:19.550Z,96.80
2018-02-11T01:26:23.718Z,96.80
2018-02-11T01:27:27.920Z,97.10
2018-02-11T01:28:32.903Z,97.90
2018-02-11T01:29:37.131Z,97.60
2018-02-11T01:30:42.814Z,97.90
2018-02-11T01:31:47.009Z,97.90
2018-02-11T01:32:51.989Z,98.30
2018-02-11T01:33:56.341Z,98.30
2018-02-11T01:35:00.636Z,98.40
2018-02-11T01:36:06.350Z,98.80
2018-02-11T01:37:10.538Z,98.80
2018-02-11T01:38:14.715Z,99.10
2018-02-11T01:39:19.256Z,99.30
2018-02-11T01:40:24.348Z,99.70
2018-02-11T01:41:28.534Z,99.70
2018-02-11T01:42:32.775Z,99.90
2018-02-11T01:43:36.978Z,99.90
2018-02-11T01:44:41.203Z,99.90
2018-02-11T01:45:45.430Z,99.90
2018-02-11T01:46:50.379Z,99.90
2018-02-11T01:47:55.101Z,99.90
2018-02-11T01:48:59.443Z,99.90
2018-02-11T01:50:15.907Z,99.90
2018-02-11T01:51:20.121Z,99.90
2018-02-11T01:52:24.344Z,99.90
2018-02-11T01:53:28.909Z,99.90
2018-02-11T01:54:33.293Z,99.90
2018-02-11T01:55:37.538Z,99.90
2018-02-11T01:56:41.739Z,99.90
2018-02-11T01:57:45.911Z,99.90
2018-02-11T01:58:50.092Z,99.90
2018-02-11T01:59:54.615Z,99.90
2018-02-11T02:00:59.354Z,99.90
2018-02-11T02:02:03.690Z,99.90
2018-02-11T02:03:07.928Z,99.90
2018-02-11T02:04:12.749Z,99.90
2018-02-11T02:05:16.951Z,99.90
2018-02-11T02:06:21.168Z,99.90
2018-02-11T02:07:26.038Z,99.90
2018-02-11T02:08:31.195Z,99.90
2018-02-11T02:09:35.439Z,99.90
2018-02-11T02:10:39.638Z,99.90
2018-02-11T02:11:43.826Z,99.90
2018-02-11T02:12:48.062Z,99.90
2018-02-11T02:13:52.267Z,99.90
2018-02-11T02:14:57.403Z,99.90
2018-02-11T02:16:02.568Z,99.90
2018-02-11T02:17:07.549Z,99.90
2018-02-11T02:18:11.787Z,99.90
2018-02-11T02:19:16.006Z,99.90
2018-02-11T02:20:20.262Z,99.90
2018-02-11T02:21:25.299Z,99.90
2018-02-11T02:22:29.567Z,99.90
2018-02-11T02:23:34.965Z,99.90
2018-02-11T02:24:39.162Z,99.90
2018-02-11T02:25:43.344Z,99.90
2018-02-11T02:26:48.320Z,99.90
2018-02-11T02:27:52.519Z,99.90
2018-02-11T02:28:57.448Z,99.90
2018-02-11T02:30:02.039Z,99.90
2018-02-11T02:31:06.292Z,99.90
2018-02-11T02:32:10.472Z,99.90
2018-02-11T02:33:14.661Z,99.90
2018-02-11T02:34:19.626Z,99.90
2018-02-11T02:35:24.740Z,99.90
2018-02-11T02:36:29.079Z,99.90
2018-02-11T02:37:33.305Z,99.90
2018-02-11T02:38:37.901Z,99.90
2018-02-11T02:39:42.099Z,99.90
2018-02-11T02:40:46.296Z,99.90
2018-02-11T02:41:51.259Z,99.90
2018-02-11T02:42:55.783Z,99.90
2018-02-11T02:44:01.201Z,99.90
2018-02-11T02:45:05.397Z,99.90
2018-02-11T02:46:09.575Z,99.90
2018-02-11T02:47:13.766Z,99.90
2018-02-11T02:48:17.963Z,99.90
2018-02-11T02:49:22.280Z,99.90
2018-02-11T02:50:26.875Z,99.90
2018-02-11T02:51:31.438Z,99.90
2018-02-11T02:52:35.677Z,99.90
2018-02-11T02:53:40.643Z,99.90
2018-02-11T02:54:44.918Z,99.90
2018-02-11T02:55:49.855Z,99.90
2018-02-11T02:56:54.984Z,99.90
2018-02-11T02:57:59.626Z,99.90
2018-02-11T02:59:03.952Z,99.90
2018-02-11T03:00:08.212Z,99.90
2018-02-11T03:01:12.391Z,99.90
2018-02-11T03:02:16.559Z,99.90
2018-02-11T03:03:20.774Z,99.90
2018-02-11T03:04:25.870Z,99.90
2018-02-11T03:05:30.885Z,99.90
2018-02-11T03:06:35.125Z,99.90
2018-02-11T03:07:40.068Z,99.90
2018-02-11T03:08:44.264Z,99.90
2018-02-11T03:09:49.221Z,99.90
2018-02-11T03:10:53.466Z,99.90
2018-02-11T03:11:57.900Z,99.90
2018-02-11T03:13:03.065Z,99.90
2018-02-11T03:14:07.599Z,99.90
2018-02-11T03:15:11.786Z,99.90
2018-02-11T03:16:16.756Z,99.90
2018-02-11T03:17:20.932Z,99.90
2018-02-11T03:18:25.219Z,99.90
2018-02-11T03:19:30.285Z,99.90
2018-02-11T03:20:34.529Z,99.90
2018-02-11T03:21:39.829Z,99.90
2018-02-11T03:22:44.028Z,99.90
2018-02-11T03:23:48.963Z,99.90
2018-02-11T03:24:53.598Z,99.90
2018-02-11T03:25:58.360Z,99.90
2018-02-11T03:27:02.978Z,99.90
2018-02-11T03:28:07.206Z,99.90
2018-02-11T03:29:11.399Z,99.90
2018-02-11T03:30:15.598Z,99.90
2018-02-11T03:31:19.798Z,99.90
2018-02-11T03:32:24.463Z,99.90
2018-02-11T03:33:28.962Z,99.90
2018-02-11T03:34:34.019Z,99.90
2018-02-11T03:35:38.976Z,99.90
2018-02-11T03:36:43.162Z,99.90
2018-02-11T03:37:48.518Z,99.90
2018-02-11T03:38:52.700Z,99.90
2018-02-11T03:39:57.768Z,99.90
2018-02-11T03:41:01.995Z,99.90
2018-02-11T03:42:06.185Z,99.90
2018-02-11T03:43:10.786Z,99.90
2018-02-11T03:44:15.736Z,99.90
2018-02-11T03:45:19.912Z,99.90
2018-02-11T03:46:25.593Z,99.90
2018-02-11T03:47:29.898Z,99.90
2018-02-11T03:48:34.625Z,99.90
2018-02-11T03:49:38.840Z,99.90
2018-02-11T03:50:43.030Z,99.90
2018-02-11T03:51:47.967Z,99.90
2018-02-11T03:52:52.171Z,99.90
2018-02-11T03:53:57.931Z,99.90
2018-02-11T03:55:02.195Z,99.90
2018-02-11T03:56:06.484Z,99.90
2018-02-11T03:57:10.692Z,99.90
2018-02-11T03:58:14.878Z,99.90
2018-02-11T03:59:19.118Z,99.90
2018-02-11T04:00:23.493Z,99.90
2018-02-11T04:01:28.646Z,99.90
2018-02-11T04:02:33.286Z,99.90
2018-02-11T04:03:37.507Z,99.90
2018-02-11T04:04:41.736Z,99.90
2018-02-11T04:05:45.948Z,99.90
2018-02-11T04:06:50.156Z,99.90
2018-02-11T04:07:54.394Z,99.90
2018-02-11T04:08:58.774Z,99.90
2018-02-11T04:10:03.040Z,99.90
2018-02-11T04:11:07.261Z,99.90
2018-02-11T04:12:11.475Z,99.90
2018-02-11T04:13:15.685Z,99.90
2018-02-11T04:14:19.886Z,99.90
2018-02-11T04:15:24.294Z,99.90
2018-02-11T04:16:29.397Z,99.90
2018-02-11T04:17:33.640Z,99.90
2018-02-11T04:18:37.946Z,99.90
2018-02-11T04:19:42.126Z,99.90
2018-02-11T04:20:46.336Z,99.90
2018-02-11T04:21:51.289Z,99.90
2018-02-11T04:22:56.454Z,99.90
2018-02-11T04:24:00.909Z,99.90
2018-02-11T04:25:05.181Z,99.90
2018-02-11T04:26:09.363Z,99.90
2018-02-11T04:27:13.531Z,99.90
2018-02-11T04:28:17.727Z,99.90
2018-02-11T04:29:21.996Z,99.90
2018-02-11T04:30:26.491Z,99.90
2018-02-11T04:31:30.989Z,99.90
2018-02-11T04:32:35.244Z,99.90
2018-02-11T04:33:39.658Z,99.90
2018-02-11T04:34:43.975Z,99.90
2018-02-11T04:35:48.181Z,99.90
2018-02-11T04:36:52.847Z,99.90
2018-02-11T04:37:58.108Z,99.90
2018-02-11T04:39:03.141Z,99.90
2018-02-11T04:40:07.341Z,99.90
2018-02-11T04:41:11.548Z,99.90
2018-02-11T04:42:16.169Z,99.90
2018-02-11T04:43:20.346Z,99.90
2018-02-11T04:44:25.615Z,99.90
2018-02-11T04:45:30.601Z,99.90
2018-02-11T04:46:34.926Z,99.90
2018-02-11T04:47:39.512Z,99.90
2018-02-11T04:48:43.702Z,99.90
2018-02-11T04:49:48.664Z,99.90
2018-02-11T04:50:53.170Z,99.90
2018-02-11T04:51:57.633Z,99.90
2018-02-11T04:53:01.937Z,99.90
2018-02-11T04:54:06.170Z,99.90
2018-02-11T04:55:10.346Z,99.90
2018-02-11T04:56:14.537Z,99.90
2018-02-11T04:57:18.707Z,99.90
2018-02-11T04:58:23.096Z,99.90
2018-02-11T04:59:27.756Z,99.90
2018-02-11T05:00:32.741Z,99.90
2018-02-11T05:01:37.046Z,99.90
2018-02-11T05:02:41.248Z,99.90
2018-02-11T05:03:45.442Z,99.90
2018-02-11T05:04:49.655Z,99.90
2018-02-11T05:05:53.912Z,99.90
2018-02-11T05:06:58.288Z,99.90
2018-02-11T05:08:02.474Z,99.90
2018-02-11T05:09:06.754Z,99.90
2018-02-11T05:10:10.938Z,99.90
2018-02-11T05:11:15.134Z,99.90
2018-02-11T05:12:19.344Z,99.90
2018-02-11T05:13:23.650Z,99.90
2018-02-11T05:14:28.487Z,99.90
2018-02-11T05:15:32.741Z,99.90
2018-02-11T05:16:36.999Z,99.90
2018-02-11T05:17:41.209Z,99.90
2018-02-11T05:18:45.398Z,99.90
2018-02-11T05:19:50.397Z,99.90
2018-02-11T05:20:55.294Z,99.90
2018-02-11T05:21:59.720Z,99.90
2018-02-11T05:23:04.027Z,99.90
2018-02-11T05:24:08.216Z,99.90
2018-02-11T05:25:12.451Z,99.90
2018-02-11T05:26:17.578Z,99.90
2018-02-11T05:27:21.757Z,99.90
2018-02-11T05:28:26.309Z,99.90
2018-02-11T05:29:30.539Z,99.90
2018-02-11T05:30:35.338Z,99.90
2018-02-11T05:31:39.521Z,99.90
2018-02-11T05:32:43.716Z,99.90
2018-02-11T05:33:48.657Z,99.90
2018-02-11T05:34:57.796Z,99.90
2018-02-11T05:36:02.561Z,99.90
2018-02-11T05:37:07.537Z,99.90
2018-02-11T05:38:11.745Z,99.90
2018-02-11T05:39:15.942Z,99.90
2018-02-11T05:40:20.907Z,99.90
2018-02-11T05:41:25.330Z,99.90
2018-02-11T05:42:29.654Z,99.90
2018-02-11T05:43:33.900Z,99.90
2018-02-11T05:44:38.657Z,99.90
2018-02-11T05:45:42.851Z,99.90
2018-02-11T05:46:47.796Z,99.90
2018-02-11T05:47:51.988Z,99.90
2018-02-11T05:48:57.726Z,99.90
2018-02-11T05:50:02.968Z,99.90
2018-02-11T05:51:07.931Z,99.90
2018-02-11T05:52:12.108Z,99.90
2018-02-11T05:53:17.071Z,99.90
2018-02-11T05:54:21.266Z,99.90
2018-02-11T05:55:26.829Z,99.90
2018-02-11T05:56:31.890Z,99.90
2018-02-11T05:57:36.214Z,99.90
2018-02-11T05:58:40.403Z,99.90
2018-02-11T05:59:44.614Z,99.90
2018-02-11T06:00:48.845Z,99.90
2018-02-11T06:01:53.046Z,99.90
2018-02-11T06:02:58.584Z,99.90
2018-02-11T06:04:03.706Z,99.90
2018-02-11T06:05:07.907Z,99.90
2018-02-11T06:06:12.132Z,99.90
2018-02-11T06:07:16.318Z,99.90
2018-02-11T06:08:20.488Z,99.90
2018-02-11T06:09:25.761Z,99.90
2018-02-11T06:10:30.045Z,99.90
2018-02-11T06:11:34.645Z,99.90
2018-02-11T06:12:39.631Z,99.90
2018-02-11T06:13:43.821Z,99.90
2018-02-11T06:14:48.001Z,99.90
2018-02-11T06:15:53.256Z,99.90
2018-02-11T06:16:58.046Z,99.90
2018-02-11T06:18:02.411Z,99.90
2018-02-11T06:19:06.949Z,99.90
2018-02-11T06:20:11.118Z,99.90
2018-02-11T06:21:15.343Z,99.90
2018-02-11T06:22:19.539Z,99.90
2018-02-11T06:23:23.961Z,99.90
2018-02-11T06:24:29.164Z,99.90
2018-02-11T06:25:33.594Z,99.90
2018-02-11T06:26:45.333Z,99.90
2018-02-11T06:27:49.554Z,99.90
2018-02-11T06:28:53.836Z,99.90
2018-02-11T06:29:59.338Z,99.90
2018-02-11T06:31:03.693Z,99.90
2018-02-11T06:32:07.895Z,99.90
2018-02-11T06:33:12.161Z,99.90
2018-02-11T06:34:16.364Z,99.90
2018-02-11T06:35:20.573Z,99.90
2018-02-11T06:36:24.863Z,99.90
2018-02-11T06:37:29.226Z,99.90
2018-02-11T06:38:33.487Z,99.90
2018-02-11T06:39:37.683Z,99.90
2018-02-11T06:40:41.882Z,99.90
2018-02-11T06:41:46.088Z,99.90
2018-02-11T06:42:50.292Z,99.90
2018-02-11T06:43:56.079Z,99.90
2018-02-11T06:45:00.646Z,99.90
2018-02-11T06:46:05.465Z,99.90
2018-02-11T06:47:10.418Z,99.90
2018-02-11T06:48:15.373Z,99.90
2018-02-11T06:49:19.576Z,99.90
2018-02-11T06:50:23.884Z,99.90
2018-02-11T06:51:28.801Z,99.90
2018-02-11T06:52:33.215Z,99.90
2018-02-11T06:53:37.418Z,99.90
2018-02-11T06:54:41.642Z,99.90
2018-02-11T06:55:45.860Z,99.90
2018-02-11T06:56:50.057Z,99.90
2018-02-11T06:57:54.277Z,99.90
2018-02-11T06:58:58.801Z,99.90
2018-02-11T07:00:03.006Z,99.90
2018-02-11T07:01:07.214Z,99.90
2018-02-11T07:02:11.426Z,99.90
2018-02-11T07:03:15.637Z,99.90
2018-02-11T07:04:19.828Z,99.90
2018-02-11T07:05:24.033Z,99.90
2018-02-11T07:06:29.352Z,99.90
2018-02-11T07:07:33.908Z,99.90
2018-02-11T07:08:38.124Z,99.90
2018-02-11T07:09:42.380Z,99.90
2018-02-11T07:10:46.605Z,99.90
2018-02-11T07:11:50.855Z,99.90
2018-02-11T07:12:55.779Z,99.90
2018-02-11T07:14:00.183Z,99.90
2018-02-11T07:15:04.496Z,99.90
2018-02-11T07:16:09.452Z,99.90
2018-02-11T07:17:13.708Z,99.90
2018-02-11T07:18:17.919Z,99.90
2018-02-11T07:19:23.192Z,99.90
2018-02-11T07:20:27.830Z,99.90
2018-02-11T07:21:32.866Z,99.90
2018-02-11T07:22:37.138Z,99.90
2018-02-11T07:23:42.124Z,99.90
2018-02-11T07:24:46.338Z,99.90
2018-02-11T07:25:50.511Z,99.90
2018-02-11T07:26:55.532Z,99.90
2018-02-11T07:27:59.805Z,99.90
2018-02-11T07:29:04.827Z,99.90
2018-02-11T07:30:09.386Z,99.90
2018-02-11T07:31:13.637Z,99.90
2018-02-11T07:32:17.788Z,99.90
2018-02-11T07:33:22.245Z,99.90
2018-02-11T07:34:27.736Z,99.90
2018-02-11T07:35:32.757Z,99.90
2018-02-11T07:36:37.292Z,99.90
2018-02-11T07:37:42.268Z,99.90
2018-02-11T07:38:46.477Z,99.90
2018-02-11T07:39:50.694Z,99.90
2018-02-11T07:40:56.313Z,99.90
2018-02-11T07:42:00.552Z,99.90
2018-02-11T07:43:04.805Z,99.90
2018-02-11T07:44:09.038Z,99.90
2018-02-11T07:45:14.026Z,99.90
2018-02-11T07:46:18.237Z,99.90
2018-02-11T07:47:22.459Z,99.90
2018-02-11T07:48:26.881Z,99.90
2018-02-11T07:49:32.487Z,99.90
2018-02-11T07:50:36.679Z,99.90
2018-02-11T07:51:40.902Z,99.90
2018-02-11T07:52:45.076Z,99.90
2018-02-11T07:53:50.090Z,99.90
2018-02-11T07:54:54.407Z,99.90
2018-02-11T07:55:59.401Z,99.90
2018-02-11T07:57:03.608Z,99.90
2018-02-11T07:58:07.814Z,99.90
2018-02-11T07:59:11.998Z,99.90
2018-02-11T08:00:16.191Z,99.90
2018-02-11T08:01:21.165Z,99.90
2018-02-11T08:02:25.481Z,99.90
2018-02-11T08:03:29.707Z,99.90
2018-02-11T08:04:33.902Z,99.90
2018-02-11T08:05:38.505Z,99.90
2018-02-11T08:06:42.682Z,99.90
2018-02-11T08:07:47.617Z,99.90
2018-02-11T08:08:51.816Z,99.90
2018-02-11T08:09:58.687Z,99.90
2018-02-11T08:11:03.560Z,99.90
2018-02-11T08:12:08.071Z,99.90
2018-02-11T08:13:12.255Z,99.90
2018-02-11T08:14:16.411Z,99.90
2018-02-11T08:15:20.628Z,99.90
2018-02-11T08:16:25.913Z,99.90
2018-02-11T08:17:30.285Z,99.90
2018-02-11T08:18:34.652Z,99.90
2018-02-11T08:19:39.495Z,99.90
2018-02-11T08:20:43.719Z,99.90
2018-02-11T08:21:47.879Z,99.90
2018-02-11T08:22:52.069Z,99.90
2018-02-11T08:23:56.647Z,99.90
2018-02-11T08:25:01.058Z,99.90
2018-02-11T08:26:05.335Z,99.90
2018-02-11T08:27:09.578Z,99.90
2018-02-11T08:28:13.748Z,99.90
2018-02-11T08:29:17.921Z,99.90
2018-02-11T08:30:22.162Z,99.90
2018-02-11T08:31:26.747Z,99.90
2018-02-11T08:32:31.420Z,99.90
2018-02-11T08:33:36.463Z,99.90
2018-02-11T08:34:41.488Z,99.90
2018-02-11T08:35:46.436Z,99.90
2018-02-11T08:36:50.611Z,99.90
2018-02-11T08:37:56.295Z,99.90
2018-02-11T08:39:00.774Z,99.90
2018-02-11T08:40:04.987Z,99.90
2018-02-11T08:41:09.168Z,99.90
2018-02-11T08:42:13.412Z,99.90
2018-02-11T08:43:18.385Z,99.90
2018-02-11T08:44:22.592Z,99.90
2018-02-11T08:45:26.850Z,99.90
2018-02-11T08:46:31.156Z,99.90
2018-02-11T08:47:35.360Z,99.90
2018-02-11T08:48:39.524Z,99.90
2018-02-11T08:49:44.498Z,99.90
2018-02-11T08:50:48.735Z,99.90
2018-02-11T08:51:53.734Z,99.90
2018-02-11T08:52:58.772Z,99.90
2018-02-11T08:54:03.061Z,99.90
2018-02-11T08:55:07.228Z,99.90
2018-02-11T08:56:12.175Z,99.90
2018-02-11T08:57:16.357Z,99.90
2018-02-11T08:58:21.526Z,99.90
2018-02-11T08:59:25.782Z,99.90
2018-02-11T09:00:29.990Z,99.90
2018-02-11T09:01:34.181Z,99.90
2018-02-11T09:02:38.379Z,99.90
2018-02-11T09:03:42.605Z,99.90
2018-02-11T09:04:46.771Z,99.90
2018-02-11T09:05:51.740Z,99.90
2018-02-11T09:06:56.097Z,99.90
2018-02-11T09:08:01.088Z,99.90
2018-02-11T09:09:05.801Z,99.90
2018-02-11T09:10:09.971Z,99.90
2018-02-11T09:11:14.944Z,99.90
2018-02-11T09:12:19.148Z,99.90
2018-02-11T09:13:23.333Z,99.90
2018-02-11T09:14:28.004Z,99.90
2018-02-11T09:15:33.171Z,99.90
2018-02-11T09:16:37.375Z,99.90
2018-02-11T09:17:42.355Z,99.90
2018-02-11T09:18:46.579Z,99.90
2018-02-11T09:19:50.810Z,99.90
2018-02-11T09:20:55.130Z,99.90
2018-02-11T09:22:00.750Z,99.90
2018-02-11T09:23:04.977Z,99.90
2018-02-11T09:24:09.186Z,99.90
2018-02-11T09:25:14.948Z,99.90
2018-02-11T09:26:19.913Z,99.90
2018-02-11T09:27:24.225Z,99.90
2018-02-11T09:28:28.628Z,99.90
2018-02-11T09:29:32.825Z,99.90
2018-02-11T09:30:37.792Z,99.90
2018-02-11T09:31:42.029Z,99.90
2018-02-11T09:32:46.204Z,99.90
2018-02-11T09:33:50.366Z,99.90
2018-02-11T09:34:54.655Z,99.90
2018-02-11T09:35:58.876Z,99.90
2018-02-11T09:37:03.896Z,99.90
2018-02-11T09:38:08.109Z,99.90
2018-02-11T09:39:12.278Z,99.90
2018-02-11T09:40:16.544Z,99.90
2018-02-11T09:41:20.754Z,99.90
2018-02-11T09:42:25.174Z,99.90
2018-02-11T09:43:30.205Z,99.90
2018-02-11T09:44:34.375Z,99.90
2018-02-11T09:45:38.569Z,99.90
2018-02-11T09:46:43.185Z,99.90
2018-02-11T09:47:47.365Z,99.90
2018-02-11T09:48:53.143Z,99.90
2018-02-11T09:49:57.630Z,99.90
2018-02-11T09:51:01.862Z,99.90
2018-02-11T09:52:06.872Z,99.90
2018-02-11T09:53:11.042Z,99.90
2018-02-11T09:54:15.231Z,99.90
2018-02-11T09:55:19.400Z,99.90
2018-02-11T09:56:24.040Z,99.90
2018-02-11T09:57:28.499Z,99.90
2018-02-11T09:58:32.756Z,99.90
2018-02-11T09:59:37.724Z,99.90
2018-02-11T10:00:42.923Z,99.90
2018-02-11T10:01:47.996Z,99.90
2018-02-11T10:02:52.208Z,99.90
2018-02-11T10:03:56.841Z,99.90
2018-02-11T10:05:01.184Z,99.90
2018-02-11T10:06:05.391Z,99.90
2018-02-11T10:07:09.567Z,99.90
2018-02-11T10:08:13.908Z,99.90
2018-02-11T10:09:18.100Z,99.90
2018-02-11T10:10:22.277Z,99.90
2018-02-11T10:11:26.482Z,99.90
2018-02-11T10:12:30.921Z,99.90
2018-02-11T10:13:35.149Z,99.90
2018-02-11T10:14:39.368Z,99.90
2018-02-11T10:15:43.577Z,99.90
2018-02-11T10:16:47.770Z,99.90
2018-02-11T10:17:51.944Z,99.90
2018-02-11T10:18:56.927Z,99.90
2018-02-11T10:20:01.203Z,99.90
2018-02-11T10:21:05.380Z,99.90
2018-02-11T10:22:10.357Z,99.90
2018-02-11T10:23:14.540Z,99.90
2018-02-11T10:24:18.722Z,99.90
2018-02-11T10:25:23.578Z,99.90
2018-02-11T10:26:27.844Z,99.90
2018-02-11T10:27:32.096Z,99.90
2018-02-11T10:28:36.317Z,99.90
2018-02-11T10:29:40.496Z,99.90
2018-02-11T10:30:45.470Z,99.90
2018-02-11T10:31:49.665Z,99.90
2018-02-11T10:32:54.274Z,99.90
2018-02-11T10:33:58.515Z,99.90
2018-02-11T10:35:02.902Z,99.90
2018-02-11T10:36:07.115Z,99.90
2018-02-11T10:37:11.328Z,99.90
2018-02-11T10:38:15.547Z,99.90
2018-02-11T10:39:19.716Z,99.90
2018-02-11T10:40:23.963Z,99.90
2018-02-11T10:41:28.167Z,99.90
2018-02-11T10:42:32.381Z,99.90
2018-02-11T10:43:37.436Z,99.90
2018-02-11T10:44:41.591Z,99.90
2018-02-11T10:45:46.576Z,99.90
2018-02-11T10:46:50.749Z,99.90
2018-02-11T10:47:55.841Z,99.60
2018-02-11T10:49:00.089Z,99.50
2018-02-11T10:50:05.388Z,98.80
2018-02-11T10:51:09.601Z,98.70
2018-02-11T10:52:13.768Z,98.00
2018-02-11T10:53:17.929Z,98.00
2018-02-11T10:54:22.132Z,97.40
2018-02-11T10:55:26.407Z,97.10
2018-02-11T10:56:30.721Z,97.10
2018-02-11T10:57:34.956Z,96.70
2018-02-11T10:58:39.136Z,96.80
2018-02-11T10:59:43.310Z,96.50
2018-02-11T11:00:48.257Z,96.30
2018-02-11T11:01:53.283Z,95.90
2018-02-11T11:02:57.595Z,95.90
2018-02-11T11:04:03.374Z,95.60
2018-02-11T11:05:07.563Z,95.60
2018-02-11T11:06:11.755Z,94.90
2018-02-11T11:07:16.780Z,94.30
2018-02-11T11:08:21.727Z,94.40
2018-02-11T11:09:26.540Z,94.40
2018-02-11T11:10:31.581Z,94.50
2018-02-11T11:11:35.972Z,94.50
2018-02-11T11:12:40.929Z,93.30
2018-02-11T11:13:46.218Z,92.90
2018-02-11T11:14:50.383Z,92.90
2018-02-11T11:15:54.825Z,92.90
2018-02-11T11:16:59.303Z,93.20
2018-02-11T11:18:03.604Z,93.50
2018-02-11T11:19:08.597Z,93.80
2018-02-11T11:20:12.763Z,93.80
2018-02-11T11:21:16.927Z,93.20
2018-02-11T11:22:21.144Z,93.00
2018-02-11T11:23:25.431Z,92.70
2018-02-11T11:24:29.709Z,91.80
2018-02-11T11:25:33.917Z,91.30
2018-02-11T11:26:38.085Z,91.10
2018-02-11T11:27:42.298Z,91.40
2018-02-11T11:28:46.487Z,90.20
2018-02-11T11:29:50.666Z,90.00
2018-02-11T11:30:55.304Z,90.10
2018-02-11T11:32:00.507Z,90.30
2018-02-11T11:33:04.819Z,90.30
2018-02-11T11:34:09.003Z,90.90
2018-02-11T11:35:13.184Z,90.70
2018-02-11T11:36:17.353Z,90.90
2018-02-11T11:37:21.551Z,91.40
2018-02-11T11:38:28.075Z,91.80
2018-02-11T11:39:32.337Z,91.80
2018-02-11T11:40:40.055Z,91.30
2018-02-11T11:41:45.191Z,91.40
2018-02-11T11:42:49.376Z,91.40
2018-02-11T11:43:55.368Z,91.40
2018-02-11T11:44:59.915Z,91.20
2018-02-11T11:46:04.928Z,90.10
2018-02-11T11:47:09.098Z,90.10
2018-02-11T11:48:13.292Z,90.20
2018-02-11T11:49:17.909Z,90.60
2018-02-11T11:50:22.960Z,90.60
2018-02-11T11:51:27.454Z,90.60
2018-02-11T11:52:31.721Z,90.50
2018-02-11T11:53:36.401Z,90.30
2018-02-11T11:54:41.394Z,86.20
2018-02-11T11:55:45.979Z,86.20
2018-02-11T11:56:50.158Z,86.70
2018-02-11T11:57:54.477Z,87.40
2018-02-11T11:58:59.656Z,87.00
2018-02-11T12:00:04.968Z,86.20
2018-02-11T12:01:09.187Z,86.20
2018-02-11T12:02:13.384Z,85.70
2018-02-11T12:03:17.540Z,85.60
2018-02-11T12:04:23.321Z,83.80
2018-02-11T12:05:28.326Z,83.80
2018-02-11T12:06:33.082Z,81.40
2018-02-11T12:07:37.290Z,80.70
2018-02-11T12:08:41.481Z,81.30
2018-02-11T12:09:46.443Z,83.80
2018-02-11T12:10:50.631Z,83.80
2018-02-11T12:11:55.858Z,81.90
2018-02-11T12:13:00.303Z,81.90
2018-02-11T12:14:04.651Z,84.00
2018-02-11T12:15:08.891Z,82.00
2018-02-11T12:16:13.092Z,82.20
2018-02-11T12:17:18.073Z,80.10
2018-02-11T12:18:22.262Z,79.30
2018-02-11T12:19:26.891Z,80.20
2018-02-11T12:20:31.216Z,77.90
2018-02-11T12:21:35.872Z,78.40
2018-02-11T12:22:40.064Z,78.40
2018-02-11T12:23:44.242Z,77.90
2018-02-11T12:24:48.436Z,77.70
2018-02-11T12:25:52.689Z,78.20
2018-02-11T12:26:56.936Z,78.90
2018-02-11T12:28:02.050Z,80.00
2018-02-11T12:29:06.462Z,79.90
2018-02-11T12:30:10.866Z,80.10
2018-02-11T12:31:15.036Z,81.00
2018-02-11T12:32:19.191Z,80.80
2018-02-11T12:33:23.984Z,79.80
2018-02-11T12:34:28.679Z,79.80
2018-02-11T12:35:32.928Z,80.80
2018-02-11T12:36:37.156Z,81.00
2018-02-11T12:37:41.404Z,81.20
2018-02-11T12:38:46.364Z,80.40
2018-02-11T12:39:50.585Z,80.40
2018-02-11T12:40:55.200Z,80.90
2018-02-11T12:41:59.911Z,82.20
2018-02-11T12:43:04.236Z,81.80
2018-02-11T12:44:08.446Z,81.00
2018-02-11T12:45:12.715Z,80.80
2018-02-11T12:46:16.940Z,81.60
2018-02-11T12:47:21.921Z,80.10
2018-02-11T12:48:26.595Z,79.90
2018-02-11T12:49:31.021Z,80.90
2018-02-11T12:50:35.478Z,80.60
2018-02-11T12:51:39.668Z,80.90
2018-02-11T12:52:43.851Z,79.70
2018-02-11T12:53:48.808Z,78.90
2018-02-11T12:54:53.007Z,78.90
2018-02-11T12:55:59.128Z,79.70
2018-02-11T12:57:04.416Z,80.20
2018-02-11T12:58:08.637Z,80.20
2018-02-11T12:59:12.823Z,79.50
2018-02-11T13:00:16.987Z,79.60
2018-02-11T13:01:21.203Z,78.70
2018-02-11T13:02:26.998Z,78.30
2018-02-11T13:03:31.577Z,78.10
2018-02-11T13:04:35.911Z,77.90
2018-02-11T13:05:40.168Z,77.60
2018-02-11T13:06:44.354Z,77.00
2018-02-11T13:07:49.321Z,77.60
2018-02-11T13:08:53.823Z,76.70
2018-02-11T13:09:57.999Z,76.60
2018-02-11T13:11:02.574Z,77.00
2018-02-11T13:12:06.775Z,76.70
2018-02-11T13:13:10.969Z,75.80
2018-02-11T13:14:15.160Z,75.30
2018-02-11T13:15:19.330Z,75.80
2018-02-11T13:16:24.354Z,76.20
2018-02-11T13:17:29.377Z,76.00
2018-02-11T13:18:33.676Z,76.00
2018-02-11T13:19:37.834Z,74.90
2018-02-11T13:20:42.026Z,74.00
2018-02-11T13:21:46.997Z,74.10
2018-02-11T13:22:51.229Z,74.00
2018-02-11T13:23:55.550Z,73.60
2018-02-11T13:25:00.523Z,73.90
2018-02-11T13:26:04.704Z,73.70
2018-02-11T13:27:08.864Z,73.60
2018-02-11T13:28:13.130Z,73.60
2018-02-11T13:29:18.092Z,73.40
2018-02-11T13:30:22.343Z,72.50
2018-02-11T13:31:26.609Z,72.20
2018-02-11T13:32:30.807Z,72.50
2018-02-11T13:33:35.760Z,71.90
2018-02-11T13:34:39.962Z,72.00
2018-02-11T13:35:44.176Z,71.90
2018-02-11T13:36:48.370Z,72.10
2018-02-11T13:37:52.544Z,72.10
2018-02-11T13:38:56.773Z,72.20
2018-02-11T13:40:01.765Z,72.20
2018-02-11T13:41:05.930Z,72.20
2018-02-11T13:42:10.171Z,72.80
2018-02-11T13:43:14.354Z,73.10
2018-02-11T13:44:18.559Z,72.90
2018-02-11T13:45:22.747Z,73.60
2018-02-11T13:46:27.738Z,74.20
2018-02-11T13:47:32.327Z,74.20
2018-02-11T13:48:36.514Z,74.80
2018-02-11T13:49:41.487Z,74.50
2018-02-11T13:50:45.695Z,74.40